Time;durP1;ratioP1;P1;durP2;ratioP2;P2;SDS_P1;SDS_P2;PMS_P1;PMS_P2;Temp;Humidity;BMP_temperature;BMP_pressure;BME280_temperature;BME280_humidity;BME280_pressure;Samples;Min_cycle;Max_cycle;Signal;HPM_P1;HPM_P2
2024/02/03 00:01:07;;;;;;;3.20;1.45;;;10.30;99.90;;;;;;4996131;23;20168;-94
2024/02/03 00:17:36;;;;;;;;;;;;;;;;;;;;;
2024/02/03 00:21:11;;;;;;;2.13;1.50;;;10.40;99.90;;;;;;4946799;23;20172;-94
2024/02/03 00:44:15;;;;;;;;;;;;;;;;;;;;;
2024/02/03 00:51:09;;;;;;;;;;;;;;;;;;;;;
2024/02/03 01:30:53;;;;;;;3.45;0.80;;;10.70;99.90;;;;;;5177960;22;20212;-94
2024/02/03 01:33:32;;;;;;;;;;;;;;;;;;;;;
2024/02/03 01:39:54;;;;;;;3.35;0.80;;;10.80;99.90;;;;;;5091757;23;20169;-96
2024/02/03 01:42:36;;;;;;;;;;;;;;;;;;;;;
2024/02/03 01:44:58;;;;;;;;;;;;;;;;;;;;;
2024/02/03 01:48:20;;;;;;;2.83;0.98;;;10.80;99.90;;;;;;5093804;23;20173;-95
2024/02/03 01:50:55;;;;;;;9.95;1.20;;;10.70;99.90;;;;;;5099086;23;20152;-95
2024/02/03 01:57:12;;;;;;;;;;;;;;;;;;;;;
2024/02/03 02:00:05;;;;;;;3.20;1.50;;;10.60;99.90;;;;;;5092872;23;20164;-94
2024/02/03 02:06:17;;;;;;;2.50;1.38;;;10.80;99.90;;;;;;4974707;23;20164;-96
2024/02/03 02:12:42;;;;;;;;;;;;;;;;;;;;;
2024/02/03 02:16:41;;;;;;;;;;;;;;;;;;;;;
2024/02/03 02:32:29;;;;;;;;;;;;;;;;;;;;;
2024/02/03 02:35:43;;;;;;;1.40;1.00;;;11.10;99.90;;;;;;4826007;24;20176;-94
2024/02/03 02:56:23;;;;;;;;;;;;;;;;;;;;;
2024/02/03 02:59:03;;;;;;;1.75;0.90;;;10.70;99.90;;;;;;4846393;24;20207;-95
2024/02/03 03:02:19;;;;;;;;;;;;;;;;;;;;;
2024/02/03 03:05:00;;;;;;;2.35;1.23;;;10.40;99.90;;;;;;4973120;23;20208;-95
2024/02/03 03:07:53;;;;;;;1.58;1.10;;;10.30;99.90;;;;;;4952991;24;20173;-94
2024/02/03 03:14:39;;;;;;;6.60;1.27;;;10.30;99.90;;;;;;4921103;24;20203;-95
2024/02/03 03:17:40;;;;;;;;;;;;;;;;;;;;;
2024/02/03 03:21:14;;;;;;;12.95;1.98;;;10.30;99.90;;;;;;4873683;24;20583;-96
2024/02/03 03:23:41;;;;;;;1.80;1.10;;;10.40;99.90;;;;;;4838536;24;20164;-94
2024/02/03 03:26:11;;;;;;;2.03;1.17;;;10.30;99.90;;;;;;4874337;24;20627;-93
2024/02/03 03:28:29;;;;;;;1.20;0.77;;;10.30;99.90;;;;;;4988866;23;20163;-93
2024/02/03 03:31:09;;;;;;;2.38;1.38;;;10.30;99.90;;;;;;5081603;23;20152;-94
2024/02/03 03:35:58;;;;;;;6.13;1.63;;;10.40;99.90;;;;;;5051898;23;20164;-93
2024/02/03 03:40:39;;;;;;;2.83;1.65;;;10.30;99.90;;;;;;5145575;23;20230;-93
2024/02/03 03:43:11;;;;;;;4.82;2.03;;;10.30;99.90;;;;;;5122199;23;20144;-96
2024/02/03 03:46:08;;;;;;;7.18;2.55;;;10.40;99.90;;;;;;5014569;23;20169;-94
2024/02/03 03:48:46;;;;;;;2.28;1.30;;;10.40;99.90;;;;;;5120992;23;20174;-94
2024/02/03 03:50:57;;;;;;;2.03;1.25;;;10.40;99.90;;;;;;5096579;23;20184;-93
2024/02/03 03:53:06;;;;;;;7.93;2.42;;;10.30;99.90;;;;;;5094707;23;20261;-93
2024/02/03 03:55:08;;;;;;;3.13;1.60;;;10.30;99.90;;;;;;5119258;23;20152;-95
2024/02/03 03:57:20;;;;;;;3.65;1.27;;;10.40;99.90;;;;;;5097622;23;20183;-94
2024/02/03 03:59:51;;;;;;;5.68;1.42;;;10.30;99.90;;;;;;5094851;23;20271;-95
2024/02/03 04:02:08;;;;;;;3.65;1.50;;;10.30;99.90;;;;;;5103674;23;20176;-95
2024/02/03 04:04:22;;;;;;;;;;;;;;;;;;;;;
2024/02/03 04:07:15;;;;;;;3.55;1.73;;;10.50;99.90;;;;;;5121703;23;20180;-95
2024/02/03 04:10:06;;;;;;;5.35;1.30;;;10.70;99.90;;;;;;5123057;23;20156;-95
2024/02/03 04:12:23;;;;;;;2.65;1.42;;;10.60;99.90;;;;;;5097826;23;20164;-95
2024/02/03 04:18:05;;;;;;;7.68;1.77;;;10.70;99.90;;;;;;5130086;23;20185;-94
2024/02/03 04:20:26;;;;;;;11.43;0.90;;;10.80;99.90;;;;;;5094449;23;20177;-95
2024/02/03 04:22:46;;;;;;;5.50;2.15;;;10.70;99.90;;;;;;5121227;23;20618;-94
2024/02/03 04:25:35;;;;;;;8.15;1.58;;;10.50;99.90;;;;;;5123134;23;20160;-94
2024/02/03 04:28:13;;;;;;;12.35;1.90;;;10.50;99.90;;;;;;5095994;23;20177;-95
2024/02/03 04:31:24;;;;;;;;;;;;;;;;;;;;;
2024/02/03 04:34:46;;;;;;;3.60;1.30;;;10.60;99.90;;;;;;5138225;23;20620;-95
2024/02/03 04:37:39;;;;;;;6.97;1.98;;;10.80;99.90;;;;;;5115963;23;20182;-94
2024/02/03 04:39:51;;;;;;;3.60;1.40;;;10.70;99.90;;;;;;5144571;23;20172;-96
2024/02/03 04:42:16;;;;;;;8.27;1.88;;;10.60;99.90;;;;;;5144460;23;20483;-94
2024/02/03 04:44:39;;;;;;;3.72;1.17;;;10.50;99.90;;;;;;5115765;23;20160;-94
2024/02/03 04:47:14;;;;;;;1.92;1.10;;;10.50;99.90;;;;;;5143494;23;20167;-93
2024/02/03 04:49:50;;;;;;;3.90;1.45;;;10.60;99.90;;;;;;5120178;23;20210;-94
2024/02/03 04:52:37;;;;;;;6.07;1.88;;;10.50;99.90;;;;;;5151880;23;20620;-94
2024/02/03 04:54:52;;;;;;;8.52;1.58;;;10.50;99.90;;;;;;5117156;23;20152;-95
2024/02/03 04:57:18;;;;;;;3.90;1.33;;;10.50;99.90;;;;;;5118990;23;20203;-95
2024/02/03 04:59:39;;;;;;;7.38;1.27;;;10.40;99.90;;;;;;5143092;23;20217;-94
2024/02/03 05:02:00;;;;;;;9.93;1.15;;;10.40;99.90;;;;;;5119133;23;20151;-94
2024/02/03 05:04:13;;;;;;;6.72;2.00;;;10.50;99.90;;;;;;5117745;23;20164;-94
2024/02/03 05:06:47;;;;;;;4.28;1.20;;;10.60;99.90;;;;;;5146769;23;20139;-96
2024/02/03 05:09:22;;;;;;;4.32;2.08;;;10.60;99.90;;;;;;5119656;23;20179;-95
2024/02/03 05:12:23;;;;;;;;;;;;;;;;;;;;;
2024/02/03 05:15:19;;;;;;;;;;;;;;;;;;;;;
2024/02/03 05:17:53;;;;;;;5.88;1.33;;;10.60;99.90;;;;;;5170795;23;20171;-94
2024/02/03 05:20:45;;;;;;;14.15;1.27;;;10.70;99.90;;;;;;5145520;23;20151;-95
2024/02/03 05:23:43;;;;;;;5.20;1.35;;;10.60;99.90;;;;;;5122089;23;20235;-94
2024/02/03 05:33:34;;;;;;;8.07;1.05;;;10.50;99.90;;;;;;5064721;23;20168;-95
2024/02/03 05:35:55;;;;;;;4.53;1.65;;;10.50;99.90;;;;;;5069523;23;20157;-95
2024/02/03 05:37:59;;;;;;;1.17;0.85;;;10.50;99.90;;;;;;4976037;23;20568;-95
2024/02/03 05:40:24;;;;;;;2.25;1.17;;;10.50;99.90;;;;;;5092891;23;20189;-95
2024/02/03 05:42:32;;;;;;;7.47;1.58;;;10.50;99.90;;;;;;5016714;23;20524;-94
2024/02/03 05:45:39;;;;;;;4.80;1.10;;;10.40;99.90;;;;;;5120348;23;20160;-95
2024/02/03 05:47:46;;;;;;;6.13;1.45;;;10.40;99.90;;;;;;5120509;23;20566;-95
2024/02/03 05:50:54;;;;;;;9.27;1.88;;;10.50;99.90;;;;;;5143235;23;20152;-94
2024/02/03 05:53:35;;;;;;;10.63;1.55;;;10.60;99.90;;;;;;5121163;23;20152;-95
2024/02/03 05:59:56;;;;;;;3.22;1.35;;;10.70;99.90;;;;;;5123124;23;20191;-94
2024/02/03 06:06:14;;;;;;;3.35;1.58;;;10.90;99.90;;;;;;5017512;23;20151;-95
2024/02/03 06:12:03;;;;;;;4.13;1.73;;;10.80;99.90;;;;;;5123149;23;20187;-95
2024/02/03 06:14:40;;;;;;;4.30;1.67;;;10.90;99.90;;;;;;5118613;23;20218;-96
2024/02/03 06:17:17;;;;;;;;;;;;;;;;;;;;;
2024/02/03 06:19:52;;;;;;;;;;;;;;;;;;;;;
2024/02/03 06:23:19;;;;;;;11.05;2.35;;;11.00;99.90;;;;;;5143225;23;20225;-94
2024/02/03 06:31:33;;;;;;;3.45;1.05;;;10.80;99.90;;;;;;5069766;23;20160;-95
2024/02/03 06:34:06;;;;;;;3.05;0.98;;;10.80;99.90;;;;;;5112839;23;20194;-95
2024/02/03 06:37:19;;;;;;;6.53;1.88;;;10.80;99.90;;;;;;5111045;23;20184;-94
2024/02/03 06:39:14;;;;;;;4.15;1.58;;;10.70;99.90;;;;;;5131915;23;20238;-94
2024/02/03 06:41:18;;;;;;;3.15;0.88;;;10.80;99.90;;;;;;5119964;23;20180;-95
2024/02/03 06:43:47;;;;;;;6.25;1.67;;;10.80;99.90;;;;;;5147561;23;20501;-95
2024/02/03 06:46:28;;;;;;;4.95;1.00;;;10.80;99.90;;;;;;5119108;23;20151;-95
2024/02/03 06:49:22;;;;;;;9.15;2.17;;;10.80;99.90;;;;;;5151452;23;20174;-95
2024/02/03 06:51:55;;;;;;;1.55;0.98;;;10.80;99.90;;;;;;5144974;23;20148;-95
2024/02/03 06:55:10;;;;;;;8.90;1.25;;;10.90;99.90;;;;;;5147405;23;20159;-93
2024/02/03 06:57:56;;;;;;;6.18;1.92;;;10.90;99.90;;;;;;5147512;23;20167;-96
2024/02/03 07:00:20;;;;;;;1.55;1.42;;;10.80;99.90;;;;;;5171953;23;20162;-95
2024/02/03 07:03:35;;;;;;;5.15;1.23;;;10.70;99.90;;;;;;5151346;23;20165;-95
2024/02/03 07:05:38;;;;;;;9.45;1.70;;;10.70;99.90;;;;;;5090602;23;20164;-94
2024/02/03 07:08:02;;;;;;;11.98;1.40;;;10.80;99.90;;;;;;5148933;23;20227;-94
2024/02/03 07:10:34;;;;;;;3.47;1.42;;;10.80;99.90;;;;;;5121262;23;20148;-95
2024/02/03 07:12:58;;;;;;;5.93;1.15;;;10.70;99.90;;;;;;5139848;23;20152;-94
2024/02/03 07:15:25;;;;;;;;;;;;;;;;;;;;;
2024/02/03 07:17:52;;;;;;;6.05;1.27;;;10.70;99.90;;;;;;5160220;23;20174;-95
2024/02/03 07:20:09;;;;;;;5.68;1.50;;;10.70;99.90;;;;;;5119990;23;20230;-95
2024/02/03 07:22:21;;;;;;;4.43;1.25;;;10.70;99.90;;;;;;5119759;23;20499;-95
2024/02/03 07:24:51;;;;;;;2.38;1.38;;;10.80;99.90;;;;;;5121687;23;20160;-94
2024/02/03 07:29:52;;;;;;;3.25;1.38;;;10.90;99.90;;;;;;5126554;23;20155;-95
2024/02/03 07:32:08;;;;;;;4.63;1.88;;;10.90;99.90;;;;;;5144390;23;20158;-94
2024/02/03 07:34:56;;;;;;;4.70;1.35;;;10.90;99.90;;;;;;5123571;23;20179;-94
2024/02/03 07:37:23;;;;;;;7.35;1.63;;;10.90;99.90;;;;;;5022696;23;20183;-95
2024/02/03 07:40:13;;;;;;;3.42;1.42;;;10.90;99.90;;;;;;5022614;23;20190;-95
2024/02/03 07:42:18;;;;;;;1.83;1.13;;;10.70;99.90;;;;;;5064882;23;20158;-94
2024/02/03 07:45:12;;;;;;;;;;;;;;;;;;;;;
2024/02/03 07:47:45;;;;;;;;;;;;;;;;;;;;;
2024/02/03 07:50:17;;;;;;;7.55;1.73;;;11.00;99.90;;;;;;5144821;23;20159;-95
2024/02/03 07:52:56;;;;;;;;;;;;;;;;;;;;;
2024/02/03 07:55:14;;;;;;;5.72;2.42;;;11.10;99.90;;;;;;5171361;23;20151;-94
2024/02/03 08:00:02;;;;;;;3.05;1.48;;;11.10;99.90;;;;;;5110644;23;20160;-94
2024/02/03 08:02:56;;;;;;;5.18;1.30;;;11.00;99.90;;;;;;5143083;23;20680;-94
2024/02/03 08:08:15;;;;;;;8.55;2.05;;;10.80;99.90;;;;;;5126994;23;20328;-94
2024/02/03 08:10:28;;;;;;;6.30;2.05;;;10.80;99.90;;;;;;5119502;23;20156;-93
2024/02/03 08:13:14;;;;;;;;;;;;;;;;;;;;;
2024/02/03 08:15:52;;;;;;;3.53;1.42;;;10.90;99.90;;;;;;5145404;23;20314;-95
2024/02/03 08:18:32;;;;;;;2.13;1.13;;;10.90;99.90;;;;;;5117344;23;20271;-95
2024/02/03 08:20:34;;;;;;;5.97;1.45;;;11.00;99.90;;;;;;5121194;23;20156;-95
2024/02/03 08:23:39;;;;;;;3.17;1.30;;;11.00;99.90;;;;;;5119734;23;20626;-95
2024/02/03 08:26:12;;;;;;;4.82;1.80;;;11.10;99.90;;;;;;5143145;23;20170;-95
2024/02/03 08:29:17;;;;;;;;;;;;;;;;;;;;;
2024/02/03 08:31:36;;;;;;;9.35;1.77;;;10.90;99.90;;;;;;5132248;23;20159;-95
2024/02/03 08:34:22;;;;;;;3.88;2.20;;;11.00;99.90;;;;;;5120036;23;20153;-96
2024/02/03 08:36:56;;;;;;;;;;;;;;;;;;;;;
2024/02/03 08:39:40;;;;;;;;;;;;;;;;;;;;;
2024/02/03 08:44:56;;;;;;;;;;;;;;;;;;;;;
2024/02/03 08:47:24;;;;;;;7.05;1.20;;;11.30;99.90;;;;;;5171188;23;20159;-94
2024/02/03 08:50:01;;;;;;;;;;;;;;;;;;;;;
2024/02/03 08:52:45;;;;;;;4.25;1.45;;;11.20;99.90;;;;;;5155652;23;20161;-95
2024/02/03 08:55:21;;;;;;;8.55;2.22;;;11.10;99.90;;;;;;5120681;23;20156;-94
2024/02/03 08:57:43;;;;;;;5.20;1.95;;;11.20;99.90;;;;;;5106876;23;20597;-94
2024/02/03 09:00:55;;;;;;;4.57;1.23;;;11.20;99.90;;;;;;5129464;23;20672;-94
2024/02/03 09:03:16;;;;;;;8.10;1.25;;;11.40;99.90;;;;;;5144816;23;20152;-95
2024/02/03 09:09:47;;;;;;;;;;;;;;;;;;;;;
2024/02/03 09:19:33;;;;;;;;;;;;;;;;;;;;;
2024/02/03 09:22:25;;;;;;;;;;;;;;;;;;;;;
2024/02/03 09:25:33;;;;;;;;;;;;;;;;;;;;;
2024/02/03 09:28:45;;;;;;;3.35;1.15;;;11.90;99.90;;;;;;5172759;22;20180;-94
2024/02/03 09:31:32;;;;;;;;;;;;;;;;;;;;;
2024/02/03 09:34:05;;;;;;;;;;;;;;;;;;;;;
2024/02/03 09:43:58;;;;;;;;;;;;;;;;;;;;;
2024/02/03 09:50:20;;;;;;;4.13;1.30;;;11.80;99.90;;;;;;5021511;23;20161;-95
2024/02/03 09:53:46;;;;;;;9.02;2.90;;;11.90;99.90;;;;;;4968374;23;20161;-95
2024/02/03 09:59:27;;;;;;;7.72;1.83;;;11.70;99.90;;;;;;4998062;23;20198;-94
2024/02/03 10:01:54;;;;;;;7.60;1.45;;;11.60;99.90;;;;;;4974852;23;20243;-93
2024/02/03 10:04:36;;;;;;;;;;;;;;;;;;;;;
2024/02/03 10:09:04;;;;;;;8.75;1.50;;;11.40;99.90;;;;;;5192610;22;20201;-94
2024/02/03 10:11:20;;;;;;;;;;;;;;;;;;;;;
2024/02/03 10:14:35;;;;;;;16.13;2.03;;;11.40;99.90;;;;;;5178784;22;20152;-94
2024/02/03 10:24:10;;;;;;;8.07;1.45;;;11.20;99.90;;;;;;5072948;23;20185;-94
2024/02/03 10:36:19;;;;;;;6.32;1.45;;;11.40;99.90;;;;;;4906103;24;20162;-94
2024/02/03 10:39:17;;;;;;;;;;;;;;;;;;;;;
2024/02/03 10:45:47;;;;;;;;;;;;;;;;;;;;;
2024/02/03 11:01:22;;;;;;;;;;;;;;;;;;;;;
2024/02/03 11:03:54;;;;;;;5.32;1.60;;;11.40;99.90;;;;;;5078242;23;20331;-95
2024/02/03 11:15:42;;;;;;;4.38;1.55;;;11.40;99.90;;;;;;5103767;22;20623;-93
2024/02/03 11:17:54;;;;;;;4.38;2.13;;;11.40;99.90;;;;;;5159283;22;20555;-96
2024/02/03 11:20:18;;;;;;;5.60;1.73;;;11.50;99.90;;;;;;5169374;23;20151;-94
2024/02/03 11:22:28;;;;;;;4.38;1.85;;;11.50;99.90;;;;;;5167948;22;20150;-95
2024/02/03 11:25:03;;;;;;;6.63;2.40;;;11.30;99.90;;;;;;5124618;22;20175;-94
2024/02/03 11:27:09;;;;;;;3.75;1.90;;;11.50;99.90;;;;;;5146091;22;20610;-94
2024/02/03 11:30:08;;;;;;;13.50;1.83;;;11.50;99.90;;;;;;5170514;23;20147;-96
2024/02/03 11:33:05;;;;;;;8.60;2.03;;;11.50;99.90;;;;;;5144590;23;20550;-95
2024/02/03 11:35:48;;;;;;;;;;;;;;;;;;;;;
2024/02/03 11:38:48;;;;;;;9.27;1.95;;;11.80;99.90;;;;;;5190930;22;20225;-94
2024/02/03 11:45:30;;;;;;;5.50;1.73;;;11.60;99.90;;;;;;5163543;23;20238;-94
2024/02/03 11:48:08;;;;;;;;;;;;;;;;;;;;;
2024/02/03 11:51:14;;;;;;;5.93;1.60;;;11.50;99.90;;;;;;5196304;22;20211;-96
2024/02/03 11:53:45;;;;;;;3.35;1.42;;;11.60;99.90;;;;;;5169273;23;20573;-96
2024/02/03 11:55:51;;;;;;;4.45;2.13;;;11.70;99.90;;;;;;5022578;23;20151;-95
2024/02/03 11:57:54;;;;;;;7.80;3.13;;;11.70;99.90;;;;;;5121805;23;20261;-94
2024/02/03 12:00:45;;;;;;;;;;;;;;;;;;;;;
2024/02/03 12:09:47;;;;;;;7.45;1.98;;;11.70;99.90;;;;;;5160476;22;20205;-94
2024/02/03 12:12:59;;;;;;;1.20;0.82;;;11.80;99.90;;;;;;5114495;22;20159;-95
2024/02/03 12:15:32;;;;;;;10.98;2.42;;;11.70;99.90;;;;;;5166543;22;20155;-95
2024/02/03 12:18:57;;;;;;;9.50;1.90;;;11.70;99.90;;;;;;5147414;23;20241;-95
2024/02/03 12:21:27;;;;;;;4.57;2.08;;;11.60;99.90;;;;;;5165966;23;20679;-95
2024/02/03 12:26:45;;;;;;;;;;;;;;;;;;;;;
2024/02/03 12:28:55;;;;;;;4.53;1.25;;;11.80;99.90;;;;;;5135026;23;20166;-94
2024/02/03 12:31:35;;;;;;;8.10;2.22;;;11.80;99.90;;;;;;5171209;22;20617;-96
2024/02/03 12:42:13;;;;;;;;;;;;;;;;;;;;;
2024/02/03 12:48:08;;;;;;;6.20;1.60;;;12.10;99.90;;;;;;4792637;24;20185;-94
2024/02/03 12:51:23;;;;;;;;;;;;;;;;;;;;;
2024/02/03 12:54:36;;;;;;;4.70;1.95;;;12.00;99.90;;;;;;5064937;23;20161;-94
2024/02/03 12:59:55;;;;;;;;;;;;;;;;;;;;;
2024/02/03 13:04:51;;;;;;;2.85;1.65;;;12.00;99.90;;;;;;5021874;23;20644;-95
2024/02/03 13:10:06;;;;;;;9.25;2.80;;;11.90;99.90;;;;;;5036865;23;20261;-94
2024/02/03 13:13:19;;;;;;;;;;;;;;;;;;;;;
2024/02/03 13:16:29;;;;;;;;;;;;;;;;;;;;;
2024/02/03 13:19:17;;;;;;;8.73;2.42;;;12.10;99.90;;;;;;4986639;23;20193;-94
2024/02/03 13:21:30;;;;;;;2.33;1.00;;;12.20;99.90;;;;;;5033887;23;20161;-94
2024/02/03 13:27:19;;;;;;;7.10;1.23;;;12.10;99.90;;;;;;5161002;22;20162;-95
2024/02/03 13:35:40;;;;;;;;;;;;;;;;;;;;;
2024/02/03 13:38:26;;;;;;;6.03;1.52;;;11.80;99.90;;;;;;5194054;22;20173;-95
2024/02/03 13:40:56;;;;;;;;;;;;;;;;;;;;;
2024/02/03 13:43:31;;;;;;;3.42;1.58;;;11.70;99.90;;;;;;5197095;22;20208;-95
2024/02/03 13:48:39;;;;;;;11.38;1.88;;;11.70;99.90;;;;;;5150196;22;20154;-96
2024/02/03 13:54:12;;;;;;;;;;;;;;;;;;;;;
2024/02/03 13:56:21;;;;;;;3.63;1.73;;;11.70;99.90;;;;;;5168427;23;20151;-95
2024/02/03 13:58:53;;;;;;;;;;;;;;;;;;;;;
2024/02/03 14:01:23;;;;;;;6.78;1.15;;;11.80;99.90;;;;;;5196468;22;20169;-95
2024/02/03 14:04:07;;;;;;;;;;;;;;;;;;;;;
2024/02/03 14:06:31;;;;;;;6.07;1.48;;;11.80;99.90;;;;;;5143626;23;20598;-95
2024/02/03 14:08:38;;;;;;;3.90;1.50;;;11.80;99.90;;;;;;5094333;23;20164;-95
2024/02/03 14:10:50;;;;;;;1.85;0.93;;;11.80;99.90;;;;;;5093153;23;20165;-95
2024/02/03 14:13:20;;;;;;;7.78;2.80;;;11.70;99.90;;;;;;5093629;23;20212;-94
2024/02/03 14:16:03;;;;;;;;;;;;;;;;;;;;;
2024/02/03 14:18:05;;;;;;;3.65;1.30;;;11.60;99.90;;;;;;5023764;23;20181;-96
2024/02/03 14:23:22;;;;;;;3.70;1.50;;;11.70;99.90;;;;;;5194818;22;20168;-95
2024/02/03 14:26:31;;;;;;;9.82;1.90;;;11.70;99.90;;;;;;5169929;22;20161;-95
2024/02/03 14:29:17;;;;;;;3.88;1.70;;;11.60;99.90;;;;;;5172838;22;20159;-94
2024/02/03 14:31:45;;;;;;;8.25;1.17;;;11.40;99.90;;;;;;5021153;23;20154;-94
2024/02/03 14:34:33;;;;;;;9.25;1.73;;;11.50;99.90;;;;;;5046498;23;20166;-94
2024/02/03 14:37:47;;;;;;;;;;;;;;;;;;;;;
2024/02/03 14:40:05;;;;;;;6.55;2.47;;;11.50;99.90;;;;;;5069610;23;20171;-96
2024/02/03 14:57:28;;;;;;;;;;;;;;;;;;;;;
2024/02/03 17:01:27;;;;;;;6.50;2.53;;;11.30;99.90;;;;;;5160635;22;20274;-95
2024/02/03 17:30:20;;;;;;;;;;;;;;;;;;;;;
2024/02/03 17:51:51;;;;;;;10.18;1.88;;;11.30;99.90;;;;;;4897898;24;20297;-95
2024/02/03 18:37:45;;;;;;;4.80;2.00;;;11.40;99.90;;;;;;5051063;23;20191;-94
2024/02/03 18:51:35;;;;;;;;;;;;;;;;;;;;;
2024/02/03 19:01:09;;;;;;;;;;;;;;;;;;;;;
2024/02/03 19:04:09;;;;;;;4.07;1.73;;;11.30;99.90;;;;;;4886364;24;20167;-95
2024/02/03 19:26:34;;;;;;;;;;;;;;;;;;;;;
2024/02/03 19:36:24;;;;;;;2.10;1.35;;;11.00;99.90;;;;;;4970393;23;20184;-96
2024/02/03 19:38:35;;;;;;;9.45;2.00;;;10.90;99.90;;;;;;4954317;23;20192;-95
2024/02/03 19:44:07;;;;;;;;;;;;;;;;;;;;;
2024/02/03 19:47:32;;;;;;;;;;;;;;;;;;;;;
2024/02/03 20:01:03;;;;;;;5.70;1.90;;;11.00;99.90;;;;;;4884209;24;20275;-94
2024/02/03 20:15:02;;;;;;;;;;;;;;;;;;;;;
2024/02/03 20:18:07;;;;;;;5.55;2.22;;;11.00;99.90;;;;;;4973439;23;20180;-94
2024/02/03 20:21:15;;;;;;;5.20;2.75;;;11.10;99.90;;;;;;4924809;24;20210;-94
2024/02/03 20:51:37;;;;;;;6.28;2.00;;;11.00;99.90;;;;;;5166876;22;20210;-95
2024/02/03 20:54:48;;;;;;;6.47;2.15;;;11.10;99.90;;;;;;5170138;23;20186;-96
2024/02/03 21:11:40;;;;;;;;;;;;;;;;;;;;;
2024/02/03 21:38:54;;;;;;;5.07;2.42;;;11.20;99.90;;;;;;4918408;24;20186;-96
2024/02/03 22:08:02;;;;;;;3.13;1.95;;;11.20;99.90;;;;;;5150601;22;20206;-94
2024/02/03 22:14:59;;;;;;;7.78;2.03;;;11.10;99.90;;;;;;5003697;23;20164;-95
2024/02/03 22:21:41;;;;;;;5.10;2.10;;;11.10;99.90;;;;;;4909556;24;20186;-96
2024/02/03 22:24:34;;;;;;;7.65;2.08;;;11.00;99.90;;;;;;4888050;24;20166;-96
2024/02/03 22:48:20;;;;;;;9.20;2.03;;;11.20;99.90;;;;;;4876630;24;20190;-96
2024/02/03 23:06:31;;;;;;;5.20;2.42;;;10.90;99.90;;;;;;4827775;24;20179;-96
2024/02/03 23:08:45;;;;;;;;;;;;;;;;;;;;;
2024/02/03 23:11:46;;;;;;;;;;;;;;;;;;;;;
2024/02/03 23:56:25;;;;;;;2.92;1.38;;;11.00;99.90;;;;;;5051641;23;20187;-96
